• Join FlightAware (Why Join?)
  • Login
  • US Flag 
12:50AM EDT


 

Airport Tracker/Info


-or-


 

Live Flight TrackerFlight Track Log ✈ KAP720 ✈ 16-May-2013 ✈ KBOS - KACK

Flight Track Log - Related Links

Times and Time Zones

All times are in EDT time to prevent confusion due to time zone crossing. See the KAP720 flight status page for this flight to view local times or setup timezone preferences in your user account.

Time Position Orientation Groundspeed Altitude Reporting Facility
EDT Latitude Longitude Course Direction KTS MPH feet Rate Location/Type
02:47PM 42.3667 -71.0333 270° West 92 106 900  Level KA90
02:48PM 42.3333 -71.0333 180° South 118 136 1,600 660 Climbing KA90
02:49PM 42.3000 -71.0333 180° South 121 139 2,200 480 Climbing KA90
02:50PM 42.2667 -71.0500 200° South 122 140 2,700 540 Climbing KA90
02:51PM 42.2333 -71.0500 180° South 131 151 3,400 540 Climbing KA90
02:52PM 42.2000 -71.0500 180° South 127 146 3,800 360 Climbing KA90
02:53PM 42.1667 -71.0667 200° South 129 148 4,200 420 Climbing KA90
02:54PM 42.1333 -71.0333 143° Southeast 157 181 4,700 360 Climbing KA90
02:55PM 42.1000 -70.9833 132° Southeast 157 181 5,100 360 Climbing KA90
02:56PM 42.0667 -70.9500 143° Southeast 154 177 5,400 300 Climbing KA90
02:58PM 42.0085 -70.8854 140° Southeast  Level Estimated
03:05PM 41.7842 -70.6376 140° Southeast  Level Estimated
03:06PM 41.7521 -70.6024 141° Southeast  Level Estimated
03:07PM 41.7200 -70.5672 141° Southeast  Level Estimated
03:08PM 41.6878 -70.5320 141° Southeast  Level Estimated
03:09PM 41.6557 -70.4968 141° Southeast  Level Estimated
03:10PM 41.6236 -70.4617 141° Southeast  Level Estimated
03:11PM 41.5914 -70.4267 141° Southeast  Level Estimated
03:12PM 41.5593 -70.3916 141° Southeast  Level Estimated
03:13PM 41.5271 -70.3566 141° Southeast  Level Estimated
03:14PM 41.4949 -70.3216 141° Southeast  Level Estimated
03:15PM 41.4627 -70.2867 141° Southeast  Level Estimated
03:16PM 41.4305 -70.2518 141° Southeast  Level Estimated
03:17PM 41.3983 -70.2169 141° Southeast  Level Estimated
03:18PM 41.3661 -70.1821 141° Southeast  Level Estimated
03:19PM 41.3339 -70.1473 141° Southeast  Level Estimated
03:20PM 41.3016 -70.1125 141° Southeast  Level Estimated
03:21PM 41.2694 -70.0778 141° Southeast  Level Estimated
03:22PM 41.2531 -70.0603 141° Southeast  Level Estimated
03:23PM 41.2531 -70.0603 72° East  Level Estimated
03:24PM 41.2531 -70.0603 72° East  Level Estimated
03:25PM 41.2531 -70.0603 72° East  Level Estimated